Time;durP1;ratioP1;P1;durP2;ratioP2;P2;SDS_P1;SDS_P2;PMS_P1;PMS_P2;Temp;Humidity;BMP_temperature;BMP_pressure;BME280_temperature;BME280_humidity;BME280_pressure;Samples;Min_cycle;Max_cycle;Signal;HPM_P1;HPM_P2
2022/06/15 00:01:06;;;;;;;3.25;1.90;;;;;;;;;;5035042;28;20151;-85
2022/06/15 00:03:36;;;;;;;6.32;3.03;;;;;;;;;;5035131;28;20458;-85
2022/06/15 00:06:09;;;;;;;4.50;1.95;;;;;;;;;;5035013;28;20052;-85
2022/06/15 00:08:39;;;;;;;2.58;2.45;;;;;;;;;;5052616;28;20132;-85
2022/06/15 00:11:12;;;;;;;3.67;2.30;;;;;;;;;;5052715;28;20135;-85
2022/06/15 00:13:40;;;;;;;4.05;2.38;;;;;;;;;;5052830;28;20091;-85
2022/06/15 00:16:07;;;;;;;5.28;2.38;;;;;;;;;;5034854;28;20053;-85
2022/06/15 00:18:35;;;;;;;3.55;2.35;;;;;;;;;;5052912;28;20136;-85
2022/06/15 00:21:03;;;;;;;3.97;2.70;;;;;;;;;;5034992;28;20136;-85
2022/06/15 00:23:31;;;;;;;4.55;2.35;;;;;;;;;;5052696;28;20108;-84
2022/06/15 00:25:58;;;;;;;4.18;2.55;;;;;;;;;;5036587;28;20457;-85
2022/06/15 00:28:26;;;;;;;2.55;2.35;;;;;;;;;;5056342;28;20467;-86
2022/06/15 00:30:53;;;;;;;6.72;2.55;;;;;;;;;;5038696;28;20128;-85
2022/06/15 00:33:26;;;;;;;4.30;2.30;;;;;;;;;;5056155;28;20045;-85
2022/06/15 00:35:58;;;;;;;2.47;2.05;;;;;;;;;;5038885;28;20045;-85
2022/06/15 00:38:27;;;;;;;5.68;2.60;;;;;;;;;;5038645;28;20541;-85
2022/06/15 00:40:54;;;;;;;3.55;2.30;;;;;;;;;;5038596;28;20106;-85
2022/06/15 00:43:35;;;;;;;2.88;2.20;;;;;;;;;;5055957;28;20131;-84
2022/06/15 00:46:13;;;;;;;4.50;2.65;;;;;;;;;;5038234;28;20051;-85
2022/06/15 00:48:41;;;;;;;5.82;2.25;;;;;;;;;;5058948;28;20125;-86
2022/06/15 00:51:08;;;;;;;3.75;2.58;;;;;;;;;;5038412;28;20045;-85
2022/06/15 00:53:35;;;;;;;4.55;2.17;;;;;;;;;;5038434;28;20057;-85
2022/06/15 00:56:02;;;;;;;4.78;2.13;;;;;;;;;;5038171;28;20045;-85
2022/06/15 00:58:31;;;;;;;4.25;2.65;;;;;;;;;;5038230;28;20531;-85
2022/06/15 01:00:58;;;;;;;5.32;2.58;;;;;;;;;;5038135;28;20563;-85
2022/06/15 01:03:26;;;;;;;5.35;2.80;;;;;;;;;;5038372;28;20088;-85
2022/06/15 01:05:58;;;;;;;5.75;3.00;;;;;;;;;;5055322;28;20051;-85
2022/06/15 01:08:33;;;;;;;3.88;2.65;;;;;;;;;;5037963;28;20045;-85
2022/06/15 01:11:03;;;;;;;3.28;2.47;;;;;;;;;;5055464;28;20095;-85
2022/06/15 01:13:31;;;;;;;5.18;3.05;;;;;;;;;;5055794;28;20463;-85
2022/06/15 01:15:58;;;;;;;3.45;2.60;;;;;;;;;;5037870;28;20446;-84
2022/06/15 01:18:31;;;;;;;7.68;2.92;;;;;;;;;;5055425;28;20106;-85
2022/06/15 01:21:03;;;;;;;7.05;2.67;;;;;;;;;;5037981;28;20052;-85
2022/06/15 01:23:49;;;;;;;3.13;2.60;;;;;;;;;;5055463;28;20073;-85
2022/06/15 01:26:40;;;;;;;3.08;2.78;;;;;;;;;;5055289;28;20103;-86
2022/06/15 01:29:16;;;;;;;5.65;3.17;;;;;;;;;;5055238;28;20045;-85
2022/06/15 01:31:58;;;;;;;3.75;2.90;;;;;;;;;;5055402;28;20132;-85
2022/06/15 01:34:33;;;;;;;5.25;3.30;;;;;;;;;;5037757;28;20045;-85
2022/06/15 01:37:23;;;;;;;4.60;2.80;;;;;;;;;;5055002;28;20049;-84
2022/06/15 01:39:56;;;;;;;3.30;2.88;;;;;;;;;;5042842;28;20055;-85
2022/06/15 01:42:24;;;;;;;15.40;3.80;;;;;;;;;;5037368;28;20071;-84
2022/06/15 01:44:53;;;;;;;5.85;3.65;;;;;;;;;;5037345;28;20485;-85
2022/06/15 01:47:22;;;;;;;5.03;3.30;;;;;;;;;;5055159;28;20503;-85
2022/06/15 01:49:52;;;;;;;4.50;3.10;;;;;;;;;;5054780;28;20045;-85
2022/06/15 01:52:21;;;;;;;3.42;3.08;;;;;;;;;;5054830;28;20484;-84
2022/06/15 01:54:55;;;;;;;6.00;3.17;;;;;;;;;;5036983;28;20049;-85
2022/06/15 01:57:22;;;;;;;5.72;2.97;;;;;;;;;;5037624;28;20075;-85
2022/06/15 01:59:53;;;;;;;3.70;3.10;;;;;;;;;;5054813;28;20061;-86
2022/06/15 02:02:35;;;;;;;5.65;3.28;;;;;;;;;;5054797;28;20049;-84
2022/06/15 02:05:21;;;;;;;5.15;2.95;;;;;;;;;;5056854;28;20168;-85
2022/06/15 02:07:51;;;;;;;6.00;3.05;;;;;;;;;;5054545;28;20075;-85
2022/06/15 02:10:20;;;;;;;9.43;3.58;;;;;;;;;;5054092;28;20055;-85
2022/06/15 02:13:06;;;;;;;4.80;3.58;;;;;;;;;;5054184;28;20107;-85
2022/06/15 02:15:35;;;;;;;4.05;3.25;;;;;;;;;;5054178;28;20061;-85
2022/06/15 02:18:05;;;;;;;5.40;3.22;;;;;;;;;;5056371;28;20468;-87
2022/06/15 02:20:36;;;;;;;3.60;3.40;;;;;;;;;;5036766;28;20048;-85
2022/06/15 02:23:05;;;;;;;4.70;3.50;;;;;;;;;;5036181;28;20143;-84
2022/06/15 02:25:35;;;;;;;4.63;3.85;;;;;;;;;;5053925;28;20135;-85
2022/06/15 02:28:02;;;;;;;6.90;3.80;;;;;;;;;;5036453;28;20045;-86
2022/06/15 02:30:30;;;;;;;4.82;3.40;;;;;;;;;;5054122;28;20513;-85
2022/06/15 02:33:03;;;;;;;3.72;3.40;;;;;;;;;;5036450;28;20044;-85
2022/06/15 02:35:30;;;;;;;4.68;3.53;;;;;;;;;;5036606;28;20055;-86
2022/06/15 02:37:57;;;;;;;10.45;4.07;;;;;;;;;;5036116;28;20099;-86
2022/06/15 02:40:25;;;;;;;5.90;3.75;;;;;;;;;;5053670;28;20098;-85
2022/06/15 02:42:52;;;;;;;4.38;3.60;;;;;;;;;;5036007;28;20404;-85
2022/06/15 02:45:24;;;;;;;3.80;3.50;;;;;;;;;;5053410;28;20056;-86
2022/06/15 02:47:51;;;;;;;6.53;3.65;;;;;;;;;;5035777;28;20580;-86
2022/06/15 02:50:20;;;;;;;4.55;4.15;;;;;;;;;;5035668;28;20552;-86
2022/06/15 02:52:55;;;;;;;4.00;3.72;;;;;;;;;;5053503;28;20073;-85
2022/06/15 02:55:24;;;;;;;4.43;4.03;;;;;;;;;;5035745;28;20163;-86
2022/06/15 02:57:53;;;;;;;7.35;4.50;;;;;;;;;;5035763;28;20136;-86
2022/06/15 03:00:22;;;;;;;4.60;4.10;;;;;;;;;;5035804;28;20540;-86
2022/06/15 03:02:50;;;;;;;4.65;3.90;;;;;;;;;;5035870;28;20110;-86
2022/06/15 03:05:17;;;;;;;5.72;3.97;;;;;;;;;;5053121;28;20049;-85
2022/06/15 03:07:44;;;;;;;7.20;4.55;;;;;;;;;;5036211;28;20110;-85
2022/06/15 03:10:12;;;;;;;7.43;4.10;;;;;;;;;;5019165;28;20127;-86
2022/06/15 03:12:39;;;;;;;4.57;4.18;;;;;;;;;;5035876;28;20123;-85
2022/06/15 03:15:06;;;;;;;7.22;4.05;;;;;;;;;;5035460;28;20132;-86
2022/06/15 03:17:33;;;;;;;4.65;3.78;;;;;;;;;;5035595;28;20381;-85
2022/06/15 03:20:01;;;;;;;11.63;4.43;;;;;;;;;;5053565;28;20052;-86
2022/06/15 03:22:28;;;;;;;7.70;3.95;;;;;;;;;;5058417;28;20075;-86
2022/06/15 03:24:55;;;;;;;9.80;5.00;;;;;;;;;;5053135;28;20562;-85
2022/06/15 03:27:22;;;;;;;3.92;3.58;;;;;;;;;;5052859;28;20110;-85
2022/06/15 03:29:50;;;;;;;4.45;4.00;;;;;;;;;;5052797;28;20135;-85
2022/06/15 03:32:18;;;;;;;5.20;3.90;;;;;;;;;;5052759;28;20456;-85
2022/06/15 03:34:45;;;;;;;7.50;4.30;;;;;;;;;;5035349;28;20498;-85
2022/06/15 03:37:12;;;;;;;5.78;4.03;;;;;;;;;;5052671;28;20133;-86
2022/06/15 03:39:39;;;;;;;6.18;3.67;;;;;;;;;;5035165;28;20051;-86
2022/06/15 03:42:11;;;;;;;4.47;4.10;;;;;;;;;;5052601;28;20089;-85
2022/06/15 03:44:39;;;;;;;4.80;3.92;;;;;;;;;;5035236;28;20124;-86
2022/06/15 03:47:12;;;;;;;7.07;4.90;;;;;;;;;;5035180;28;20412;-85
2022/06/15 03:49:41;;;;;;;5.85;4.45;;;;;;;;;;5035584;28;20052;-86
2022/06/15 03:52:10;;;;;;;5.97;4.70;;;;;;;;;;5035158;28;20114;-85
2022/06/15 03:54:37;;;;;;;4.68;4.18;;;;;;;;;;5034961;28;20485;-86
2022/06/15 03:57:04;;;;;;;10.65;5.82;;;;;;;;;;5052580;28;20405;-86
2022/06/15 03:59:32;;;;;;;12.68;9.88;;;;;;;;;;5035550;28;20048;-85
2022/06/15 04:02:00;;;;;;;9.57;7.93;;;;;;;;;;5038966;28;20497;-85
2022/06/15 04:04:27;;;;;;;9.52;8.02;;;;;;;;;;5039122;28;20132;-85
2022/06/15 04:06:54;;;;;;;10.95;8.10;;;;;;;;;;5056746;28;20132;-86
2022/06/15 04:09:22;;;;;;;9.60;7.13;;;;;;;;;;5038735;28;20055;-85
2022/06/15 04:12:02;;;;;;;11.93;6.88;;;;;;;;;;5038919;28;20055;-85
2022/06/15 04:14:30;;;;;;;7.22;6.53;;;;;;;;;;5056426;28;20099;-85
2022/06/15 04:16:57;;;;;;;6.43;5.78;;;;;;;;;;5038669;28;20561;-86
2022/06/15 04:19:26;;;;;;;8.23;5.20;;;;;;;;;;5056541;28;20052;-85
2022/06/15 04:21:53;;;;;;;11.52;6.00;;;;;;;;;;5038988;28;20110;-86
2022/06/15 04:24:21;;;;;;;8.65;5.10;;;;;;;;;;5038673;28;20421;-86
2022/06/15 04:26:49;;;;;;;5.72;5.13;;;;;;;;;;5056122;28;20085;-85
2022/06/15 04:29:17;;;;;;;6.55;4.60;;;;;;;;;;5056227;28;20081;-85
2022/06/15 04:31:44;;;;;;;6.18;3.47;;;;;;;;;;5038909;28;20049;-85
2022/06/15 04:34:11;;;;;;;4.82;3.78;;;;;;;;;;5038644;28;20053;-85
2022/06/15 04:36:39;;;;;;;5.65;3.90;;;;;;;;;;5057571;28;20091;-86
2022/06/15 04:39:08;;;;;;;5.90;3.38;;;;;;;;;;5061726;28;20049;-85
2022/06/15 04:41:36;;;;;;;3.75;3.00;;;;;;;;;;5038571;28;20041;-85
2022/06/15 04:44:05;;;;;;;5.05;3.40;;;;;;;;;;5038380;28;20416;-85
2022/06/15 04:46:32;;;;;;;4.47;3.58;;;;;;;;;;5038557;28;20079;-86
2022/06/15 04:49:00;;;;;;;4.38;3.05;;;;;;;;;;5055746;28;20064;-85
2022/06/15 04:51:29;;;;;;;4.15;2.90;;;;;;;;;;5038297;28;20048;-85
2022/06/15 04:54:14;;;;;;;3.63;2.50;;;;;;;;;;5037804;28;20047;-84
2022/06/15 04:56:41;;;;;;;2.25;2.05;;;;;;;;;;5056094;28;20045;-85
2022/06/15 04:59:08;;;;;;;3.22;2.60;;;;;;;;;;5038137;28;20499;-85
2022/06/15 05:01:36;;;;;;;3.08;2.05;;;;;;;;;;5038266;28;20132;-85
2022/06/15 05:04:03;;;;;;;4.60;2.22;;;;;;;;;;5055506;28;20056;-86
2022/06/15 05:06:32;;;;;;;4.00;1.70;;;;;;;;;;5037902;28;20051;-85
2022/06/15 05:08:59;;;;;;;2.42;1.65;;;;;;;;;;5055608;28;20049;-85
2022/06/15 05:11:29;;;;;;;3.97;1.58;;;;;;;;;;5037068;28;20051;-85
2022/06/15 05:13:56;;;;;;;3.88;1.75;;;;;;;;;;5037374;28;20541;-85
2022/06/15 05:16:24;;;;;;;2.95;1.70;;;;;;;;;;5055179;28;20099;-85
2022/06/15 05:18:51;;;;;;;2.47;1.77;;;;;;;;;;5037434;28;20494;-85
2022/06/15 05:21:19;;;;;;;1.80;1.30;;;;;;;;;;5037488;28;20053;-85
2022/06/15 05:23:46;;;;;;;3.10;1.23;;;;;;;;;;5037532;28;20104;-84
2022/06/15 05:26:13;;;;;;;2.17;1.27;;;;;;;;;;5037321;28;20049;-85
2022/06/15 05:28:41;;;;;;;4.90;1.30;;;;;;;;;;5037427;28;20080;-85
2022/06/15 05:31:26;;;;;;;2.78;1.38;;;;;;;;;;5055052;28;20051;-85
2022/06/15 05:33:54;;;;;;;3.30;1.25;;;;;;;;;;5054805;28;20060;-85
2022/06/15 05:36:26;;;;;;;2.00;1.15;;;;;;;;;;5037192;28;20387;-85
2022/06/15 05:38:54;;;;;;;4.55;1.40;;;;;;;;;;5054647;28;20051;-85
2022/06/15 05:41:21;;;;;;;5.57;1.40;;;;;;;;;;5037258;28;20063;-85
2022/06/15 05:46:32;;;;;;;6.43;1.15;;;;;;;;;;5054804;28;20079;-85
2022/06/15 05:49:01;;;;;;;4.22;0.95;;;;;;;;;;5054641;28;20464;-85
2022/06/15 05:51:28;;;;;;;3.53;1.02;;;;;;;;;;5037185;28;20061;-85
2022/06/15 05:53:55;;;;;;;2.22;1.02;;;;;;;;;;5038548;28;20088;-82
2022/06/15 05:56:23;;;;;;;2.33;0.93;;;;;;;;;;5038586;28;20421;-83
2022/06/15 05:58:51;;;;;;;4.68;1.58;;;;;;;;;;5054886;28;20132;-84
2022/06/15 06:01:23;;;;;;;3.10;1.10;;;;;;;;;;5036695;28;20057;-83
2022/06/15 06:03:50;;;;;;;2.55;1.13;;;;;;;;;;5036686;28;20136;-83
2022/06/15 06:06:17;;;;;;;6.97;1.70;;;;;;;;;;5036781;28;20044;-84
2022/06/15 06:08:44;;;;;;;4.93;1.40;;;;;;;;;;5036747;28;20401;-83
2022/06/15 06:11:11;;;;;;;3.00;1.23;;;;;;;;;;5054128;28;20149;-84
2022/06/15 06:13:39;;;;;;;2.45;1.33;;;;;;;;;;5036778;28;20041;-84
2022/06/15 06:16:06;;;;;;;8.88;2.20;;;;;;;;;;5036716;28;20135;-84
2022/06/15 06:18:33;;;;;;;4.78;1.58;;;;;;;;;;5036828;28;20135;-83
2022/06/15 06:21:01;;;;;;;11.23;2.17;;;;;;;;;;5036803;28;20095;-84
2022/06/15 06:23:28;;;;;;;3.53;1.60;;;;;;;;;;5035702;28;20124;-84
2022/06/15 06:25:55;;;;;;;15.70;2.70;;;;;;;;;;5054065;28;20083;-86
2022/06/15 06:28:25;;;;;;;14.35;3.13;;;;;;;;;;5038519;28;20135;-82
2022/06/15 06:30:53;;;;;;;14.55;2.78;;;;;;;;;;5035263;28;20052;-84
2022/06/15 06:33:20;;;;;;;14.85;2.55;;;;;;;;;;5036558;28;20044;-83
2022/06/15 06:35:47;;;;;;;13.20;2.35;;;;;;;;;;5036140;28;20541;-85
2022/06/15 06:38:17;;;;;;;9.55;2.40;;;;;;;;;;5053706;28;20041;-83
2022/06/15 06:40:44;;;;;;;10.40;2.10;;;;;;;;;;5036267;28;20053;-84
2022/06/15 06:43:12;;;;;;;15.32;2.40;;;;;;;;;;5053599;28;20127;-84
2022/06/15 06:45:39;;;;;;;7.15;2.15;;;;;;;;;;5053611;28;20412;-84
2022/06/15 06:48:06;;;;;;;9.25;2.30;;;;;;;;;;5035980;28;20136;-85
2022/06/15 06:50:35;;;;;;;9.43;2.30;;;;;;;;;;5035758;28;20152;-84
2022/06/15 06:53:03;;;;;;;7.53;2.00;;;;;;;;;;5036002;28;20080;-84
2022/06/15 06:55:31;;;;;;;9.40;1.85;;;;;;;;;;5053398;28;20045;-85
2022/06/15 06:57:59;;;;;;;7.30;2.13;;;;;;;;;;5035890;28;20057;-84
2022/06/15 07:00:27;;;;;;;7.80;1.85;;;;;;;;;;5053361;28;20147;-84
2022/06/15 07:02:54;;;;;;;7.53;1.80;;;;;;;;;;5035370;28;20136;-84
2022/06/15 07:05:24;;;;;;;4.75;1.65;;;;;;;;;;5036061;28;20049;-85
2022/06/15 07:07:51;;;;;;;10.43;1.83;;;;;;;;;;5035776;28;20053;-85
2022/06/15 07:10:19;;;;;;;10.23;2.47;;;;;;;;;;5053281;28;20140;-85
2022/06/15 07:12:46;;;;;;;13.27;2.58;;;;;;;;;;5036789;28;20051;-83
2022/06/15 07:15:14;;;;;;;12.07;2.88;;;;;;;;;;5035506;28;20048;-85
2022/06/15 07:17:41;;;;;;;10.68;2.40;;;;;;;;;;5053125;28;20144;-86
2022/06/15 07:20:10;;;;;;;14.95;2.67;;;;;;;;;;5035542;28;20084;-83
2022/06/15 07:22:38;;;;;;;7.30;2.17;;;;;;;;;;5035495;28;20513;-85
2022/06/15 07:25:06;;;;;;;7.57;2.30;;;;;;;;;;5034953;28;20480;-84
2022/06/15 07:27:33;;;;;;;4.85;1.85;;;;;;;;;;5035631;28;20469;-84
2022/06/15 07:30:03;;;;;;;9.30;1.73;;;;;;;;;;5035154;28;20099;-84
2022/06/15 07:32:30;;;;;;;4.57;1.80;;;;;;;;;;5052640;28;20540;-84
2022/06/15 07:34:57;;;;;;;5.43;1.83;;;;;;;;;;5034698;28;20053;-84
2022/06/15 07:37:24;;;;;;;6.38;1.67;;;;;;;;;;5052798;28;20469;-84
2022/06/15 07:40:12;;;;;;;4.85;1.65;;;;;;;;;;5053055;28;20052;-86
2022/06/15 07:42:39;;;;;;;3.70;1.30;;;;;;;;;;5052662;28;20056;-84
2022/06/15 07:45:07;;;;;;;10.25;2.20;;;;;;;;;;5052521;28;20072;-84
2022/06/15 07:50:20;;;;;;;5.88;1.55;;;;;;;;;;5052526;28;20449;-84
2022/06/15 07:53:04;;;;;;;5.05;1.27;;;;;;;;;;5036608;28;20110;-83
2022/06/15 07:55:33;;;;;;;1.45;1.10;;;;;;;;;;5034826;28;20132;-83
2022/06/15 07:58:01;;;;;;;2.60;1.10;;;;;;;;;;5052491;28;20124;-83
2022/06/15 08:00:29;;;;;;;1.40;1.25;;;;;;;;;;5034797;28;20057;-84
2022/06/15 08:02:58;;;;;;;3.28;1.23;;;;;;;;;;5034561;28;20049;-83
2022/06/15 08:05:26;;;;;;;2.83;1.13;;;;;;;;;;5034250;28;20052;-83
2022/06/15 08:07:54;;;;;;;1.73;1.23;;;;;;;;;;5034536;28;20049;-83
2022/06/15 08:10:25;;;;;;;1.92;1.10;;;;;;;;;;5034798;28;20049;-83
2022/06/15 08:12:52;;;;;;;2.42;1.10;;;;;;;;;;5034619;28;20056;-84
2022/06/15 08:15:20;;;;;;;2.22;1.08;;;;;;;;;;5052241;28;20049;-83
2022/06/15 08:17:49;;;;;;;4.03;1.48;;;;;;;;;;5034804;28;20045;-84
2022/06/15 08:20:36;;;;;;;1.40;1.08;;;;;;;;;;5051948;28;20568;-84
2022/06/15 08:23:09;;;;;;;5.15;1.50;;;;;;;;;;5030935;28;20408;-84
2022/06/15 08:25:39;;;;;;;2.73;1.40;;;;;;;;;;5052358;28;20136;-83
2022/06/15 08:28:08;;;;;;;3.33;1.27;;;;;;;;;;5034607;28;20084;-83
2022/06/15 08:30:36;;;;;;;4.00;1.35;;;;;;;;;;5054147;28;20048;-86
2022/06/15 08:33:05;;;;;;;2.60;1.40;;;;;;;;;;5034963;28;20103;-83
2022/06/15 08:35:32;;;;;;;1.90;1.33;;;;;;;;;;5034396;28;20045;-83
2022/06/15 08:37:59;;;;;;;2.30;1.15;;;;;;;;;;5052067;28;20055;-83
2022/06/15 08:40:32;;;;;;;1.67;1.05;;;;;;;;;;5052144;28;20128;-85
2022/06/15 08:42:59;;;;;;;4.53;1.50;;;;;;;;;;5052357;28;20084;-85
2022/06/15 08:45:38;;;;;;;2.60;1.20;;;;;;;;;;5034164;28;20056;-83
2022/06/15 08:48:24;;;;;;;10.27;2.42;;;;;;;;;;5037463;28;20053;-84
2022/06/15 08:50:56;;;;;;;7.82;1.75;;;;;;;;;;5038105;28;20420;-83
2022/06/15 08:53:25;;;;;;;8.00;1.45;;;;;;;;;;5038072;28;20076;-83
2022/06/15 08:56:14;;;;;;;4.90;1.58;;;;;;;;;;5037652;28;20144;-87
2022/06/15 08:58:47;;;;;;;3.90;1.15;;;;;;;;;;5037910;28;20073;-84
2022/06/15 09:01:19;;;;;;;4.40;2.13;;;;;;;;;;5037524;28;20148;-84
2022/06/15 09:04:04;;;;;;;5.35;1.45;;;;;;;;;;5037737;28;20470;-83
2022/06/15 09:06:39;;;;;;;3.55;1.30;;;;;;;;;;5037534;28;20460;-84
2022/06/15 09:09:12;;;;;;;2.80;1.30;;;;;;;;;;5055272;28;20144;-83
2022/06/15 09:11:40;;;;;;;;;;;;;;;;;;5037830;28;20561;-86
2022/06/15 09:14:24;;;;;;;3.72;1.50;;;;;;;;;;5054988;28;20437;-84
2022/06/15 09:16:59;;;;;;;1.73;0.95;;;;;;;;;;5037657;28;20053;-83
2022/06/15 09:19:29;;;;;;;2.88;1.20;;;;;;;;;;5037185;28;20084;-84
2022/06/15 09:22:07;;;;;;;1.27;0.95;;;;;;;;;;5037212;28;20044;-84
2022/06/15 09:24:48;;;;;;;6.15;1.60;;;;;;;;;;5037102;28;20122;-84
2022/06/15 09:27:24;;;;;;;2.95;1.20;;;;;;;;;;5037204;28;20080;-84
2022/06/15 09:29:55;;;;;;;1.50;1.40;;;;;;;;;;5055160;28;20051;-83
2022/06/15 09:32:24;;;;;;;11.60;1.92;;;;;;;;;;5037271;28;20412;-86
2022/06/15 09:34:58;;;;;;;21.23;1.90;;;;;;;;;;5037163;28;20132;-87
2022/06/15 09:37:28;;;;;;;5.47;1.23;;;;;;;;;;5037564;28;20143;-88
2022/06/15 09:39:55;;;;;;;1.85;1.25;;;;;;;;;;5055321;28;20492;-85
2022/06/15 09:42:24;;;;;;;1.70;1.20;;;;;;;;;;5037800;28;20052;-89
2022/06/15 09:44:59;;;;;;;1.50;1.30;;;;;;;;;;5055279;28;20076;-88
2022/06/15 09:47:32;;;;;;;3.03;1.13;;;;;;;;;;5064312;28;20059;-86
2022/06/15 09:50:18;;;;;;;4.68;1.40;;;;;;;;;;5037743;28;20454;-90
2022/06/15 09:52:56;;;;;;;3.53;1.10;;;;;;;;;;5036681;28;20081;-86
2022/06/15 09:55:31;;;;;;;1.42;1.10;;;;;;;;;;5054324;28;20095;-82
2022/06/15 09:57:59;;;;;;;3.80;1.75;;;;;;;;;;5053868;28;20071;-84
2022/06/15 10:00:26;;;;;;;5.22;1.60;;;;;;;;;;5037133;28;20099;-83
2022/06/15 10:02:56;;;;;;;8.15;1.70;;;;;;;;;;5037322;28;20051;-83
2022/06/15 10:05:23;;;;;;;3.38;1.00;;;;;;;;;;5038384;28;20162;-84
2022/06/15 10:07:52;;;;;;;1.67;1.50;;;;;;;;;;5054789;28;20053;-91
2022/06/15 10:10:23;;;;;;;3.13;1.20;;;;;;;;;;5036469;28;20041;-83
2022/06/15 10:12:56;;;;;;;5.03;1.10;;;;;;;;;;5036427;28;20588;-84
2022/06/15 10:15:31;;;;;;;2.73;1.20;;;;;;;;;;5036290;28;20140;-83
2022/06/15 10:18:14;;;;;;;3.70;1.40;;;;;;;;;;5053901;28;20346;-84
2022/06/15 10:20:42;;;;;;;2.80;1.30;;;;;;;;;;5036537;28;20076;-84
2022/06/15 10:23:22;;;;;;;1.92;1.00;;;;;;;;;;5036290;28;20131;-84
2022/06/15 10:25:52;;;;;;;3.50;1.67;;;;;;;;;;5036343;28;20057;-88
2022/06/15 10:28:27;;;;;;;1.98;1.10;;;;;;;;;;5036218;28;20472;-85
2022/06/15 10:30:56;;;;;;;1.60;1.35;;;;;;;;;;5036071;28;20049;-84
2022/06/15 10:33:23;;;;;;;1.25;0.95;;;;;;;;;;5036140;28;20092;-84
2022/06/15 10:35:55;;;;;;;9.18;1.92;;;;;;;;;;5036401;28;20123;-86
2022/06/15 10:38:22;;;;;;;7.63;1.98;;;;;;;;;;5053819;28;20489;-84
2022/06/15 10:40:52;;;;;;;2.63;1.08;;;;;;;;;;5053871;28;20124;-85
2022/06/15 10:43:23;;;;;;;3.58;2.00;;;;;;;;;;5053750;28;20131;-84
2022/06/15 10:45:53;;;;;;;1.88;1.17;;;;;;;;;;5035312;28;20044;-83
2022/06/15 10:48:24;;;;;;;3.15;1.20;;;;;;;;;;5053369;28;20484;-84
2022/06/15 10:51:01;;;;;;;1.17;1.00;;;;;;;;;;5053165;28;20049;-84
2022/06/15 10:53:43;;;;;;;0.80;0.80;;;;;;;;;;5036665;28;20052;-83
2022/06/15 11:02:28;;;;;;;2.08;1.40;;;;;;;;;;5053286;28;20065;-82
2022/06/15 11:05:00;;;;;;;1.33;1.10;;;;;;;;;;5039405;28;20045;-83
2022/06/15 11:07:30;;;;;;;7.75;1.63;;;;;;;;;;5036146;28;20139;-86
2022/06/15 11:09:58;;;;;;;2.90;1.38;;;;;;;;;;5034789;28;20045;-83
2022/06/15 11:12:41;;;;;;;4.50;1.20;;;;;;;;;;5052939;28;20464;-83
2022/06/15 11:15:14;;;;;;;4.67;1.20;;;;;;;;;;5034978;28;20041;-83
2022/06/15 11:18:01;;;;;;;2.63;1.30;;;;;;;;;;5035414;28;20501;-83
2022/06/15 11:20:32;;;;;;;5.38;1.15;;;;;;;;;;5053227;28;20049;-84
2022/06/15 11:23:12;;;;;;;2.87;1.30;;;;;;;;;;5035329;28;20059;-83
2022/06/15 11:25:43;;;;;;;12.75;1.70;;;;;;;;;;5034722;28;20077;-83
2022/06/15 11:28:17;;;;;;;6.00;1.95;;;;;;;;;;5052835;28;20124;-87
2022/06/15 11:30:51;;;;;;;14.02;1.52;;;;;;;;;;5035419;28;20052;-83
2022/06/15 11:33:42;;;;;;;4.35;1.70;;;;;;;;;;5035620;28;20049;-84
2022/06/15 11:36:15;;;;;;;4.35;2.85;;;;;;;;;;5034961;28;20105;-83
2022/06/15 11:38:47;;;;;;;2.13;1.43;;;;;;;;;;5035689;28;20139;-85
2022/06/15 11:41:20;;;;;;;4.07;1.33;;;;;;;;;;5052738;28;20299;-84
2022/06/15 11:43:50;;;;;;;4.93;1.50;;;;;;;;;;5035083;28;20091;-83
2022/06/15 11:46:33;;;;;;;4.82;1.25;;;;;;;;;;5034752;28;20465;-82
2022/06/15 11:49:03;;;;;;;1.80;1.17;;;;;;;;;;5034990;28;20100;-82
2022/06/15 11:51:45;;;;;;;8.45;2.83;;;;;;;;;;5035735;28;20075;-83
2022/06/15 11:54:23;;;;;;;8.55;2.38;;;;;;;;;;5035200;28;20532;-85
2022/06/15 11:57:19;;;;;;;6.22;1.95;;;;;;;;;;5035205;28;20486;-84
2022/06/15 12:00:03;;;;;;;6.45;1.55;;;;;;;;;;5052990;28;20080;-84
2022/06/15 12:02:39;;;;;;;4.22;1.10;;;;;;;;;;5036143;28;20045;-86
2022/06/15 12:05:09;;;;;;;2.85;1.63;;;;;;;;;;5052593;28;20498;-85
2022/06/15 12:07:48;;;;;;;3.05;1.60;;;;;;;;;;5035418;28;20111;-84
2022/06/15 12:10:33;;;;;;;4.25;1.70;;;;;;;;;;5035571;28;20135;-84
2022/06/15 12:13:09;;;;;;;2.78;1.10;;;;;;;;;;5035034;28;20075;-84
2022/06/15 12:15:39;;;;;;;3.22;1.58;;;;;;;;;;5052384;28;20135;-86
2022/06/15 12:18:19;;;;;;;3.15;1.50;;;;;;;;;;5053118;28;20151;-86
2022/06/15 12:20:55;;;;;;;1.60;1.50;;;;;;;;;;5054627;28;20049;-84
2022/06/15 12:23:30;;;;;;;2.05;1.55;;;;;;;;;;5048968;28;20056;-87
2022/06/15 12:26:21;;;;;;;6.50;1.50;;;;;;;;;;5039733;28;20409;-86
2022/06/15 12:28:51;;;;;;;2.85;1.40;;;;;;;;;;5007057;28;20081;-83
2022/06/15 12:31:39;;;;;;;4.18;1.50;;;;;;;;;;5056319;28;20416;-84
2022/06/15 12:34:20;;;;;;;3.10;1.23;;;;;;;;;;5056318;28;20049;-84
2022/06/15 12:36:53;;;;;;;2.67;1.70;;;;;;;;;;5038592;28;20178;-84
2022/06/15 12:39:51;;;;;;;1.40;1.30;;;;;;;;;;5056425;28;20309;-85
2022/06/15 12:42:18;;;;;;;3.17;1.20;;;;;;;;;;5038706;28;20438;-87
2022/06/15 12:45:01;;;;;;;1.88;1.63;;;;;;;;;;5038693;28;20144;-84
2022/06/15 12:47:29;;;;;;;4.95;1.88;;;;;;;;;;5039235;28;20154;-83
2022/06/15 12:50:17;;;;;;;1.63;1.38;;;;;;;;;;5056045;28;20085;-85
2022/06/15 12:53:05;;;;;;;3.28;1.65;;;;;;;;;;5055899;28;20056;-85
2022/06/15 12:55:51;;;;;;;2.33;1.35;;;;;;;;;;5038685;28;20053;-86
2022/06/15 12:58:48;;;;;;;2.97;1.50;;;;;;;;;;5038534;28;20406;-85
2022/06/15 13:01:19;;;;;;;2.15;1.23;;;;;;;;;;5019110;28;20079;-84
2022/06/15 13:03:47;;;;;;;1.65;1.33;;;;;;;;;;5038750;28;20114;-88
2022/06/15 13:06:32;;;;;;;1.35;1.25;;;;;;;;;;5056067;28;20045;-85
2022/06/15 13:09:03;;;;;;;1.98;1.27;;;;;;;;;;5037965;28;20085;-84
2022/06/15 13:11:31;;;;;;;2.92;1.20;;;;;;;;;;5055471;28;20103;-84
2022/06/15 13:14:11;;;;;;;4.65;1.40;;;;;;;;;;5055361;28;20053;-85
2022/06/15 13:16:40;;;;;;;5.03;1.50;;;;;;;;;;5038000;28;20148;-85
2022/06/15 13:19:10;;;;;;;2.70;1.27;;;;;;;;;;5037757;28;20049;-85
2022/06/15 13:21:52;;;;;;;1.90;1.30;;;;;;;;;;5038286;28;20051;-85
2022/06/15 13:24:19;;;;;;;2.08;1.40;;;;;;;;;;5038177;28;20053;-86
2022/06/15 13:26:49;;;;;;;2.15;1.35;;;;;;;;;;5038657;28;20088;-88
2022/06/15 13:29:19;;;;;;;4.40;1.95;;;;;;;;;;5038427;28;20139;-90
2022/06/15 13:31:53;;;;;;;7.55;2.53;;;;;;;;;;5039566;28;20095;-86
2022/06/15 13:34:32;;;;;;;3.33;1.50;;;;;;;;;;5038196;28;20456;-87
2022/06/15 13:37:18;;;;;;;4.30;1.70;;;;;;;;;;5037810;28;20135;-87
2022/06/15 13:39:48;;;;;;;2.65;1.30;;;;;;;;;;5042933;28;20183;-93
2022/06/15 13:42:23;;;;;;;1.58;1.48;;;;;;;;;;5041423;28;20136;-87
2022/06/15 13:44:52;;;;;;;1.33;1.23;;;;;;;;;;5055394;28;20102;-88
2022/06/15 13:47:21;;;;;;;7.10;1.73;;;;;;;;;;5037640;28;20447;-89
2022/06/15 13:49:51;;;;;;;7.30;1.60;;;;;;;;;;5037966;28;20455;-86
2022/06/15 13:52:21;;;;;;;3.75;1.38;;;;;;;;;;5037381;28;20041;-85
2022/06/15 13:54:59;;;;;;;5.03;1.50;;;;;;;;;;5037696;28;20049;-88
2022/06/15 13:57:41;;;;;;;2.22;1.30;;;;;;;;;;5055041;28;20444;-85
2022/06/15 14:00:11;;;;;;;3.85;1.20;;;;;;;;;;5056721;28;20049;-86
2022/06/15 14:02:57;;;;;;;3.10;1.50;;;;;;;;;;5037157;28;20140;-85
2022/06/15 14:05:35;;;;;;;2.20;1.42;;;;;;;;;;5037070;28;20519;-86
2022/06/15 14:08:09;;;;;;;2.05;1.30;;;;;;;;;;5036686;28;20045;-86
2022/06/15 14:10:43;;;;;;;1.90;1.30;;;;;;;;;;5037081;28;20131;-86
2022/06/15 14:13:10;;;;;;;;;;;;;;;;;;5055097;28;20558;-86
2022/06/15 14:15:38;;;;;;;4.25;1.45;;;;;;;;;;5054313;28;20015;-85
2022/06/15 14:18:15;;;;;;;4.22;1.55;;;;;;;;;;5054532;28;20234;-86
2022/06/15 14:20:45;;;;;;;1.85;1.20;;;;;;;;;;5036630;28;20136;-85
2022/06/15 14:23:15;;;;;;;3.42;1.40;;;;;;;;;;5036820;28;20059;-86
2022/06/15 14:26:02;;;;;;;2.75;1.20;;;;;;;;;;5054020;28;20055;-85
2022/06/15 14:28:30;;;;;;;3.28;1.60;;;;;;;;;;5036717;28;20135;-86
2022/06/15 14:31:04;;;;;;;1.27;1.05;;;;;;;;;;5053803;28;20049;-86
2022/06/15 14:33:32;;;;;;;1.90;1.58;;;;;;;;;;5054421;28;20091;-87
2022/06/15 14:36:09;;;;;;;4.05;1.58;;;;;;;;;;5036250;28;20049;-86
2022/06/15 14:38:41;;;;;;;3.17;1.33;;;;;;;;;;5036198;28;20052;-86
2022/06/15 14:41:12;;;;;;;4.65;1.58;;;;;;;;;;5053576;28;20143;-86
2022/06/15 14:43:39;;;;;;;5.00;1.50;;;;;;;;;;5036495;28;20127;-87
2022/06/15 14:46:07;;;;;;;1.50;1.40;;;;;;;;;;5036893;28;20431;-86
2022/06/15 14:48:36;;;;;;;2.38;1.42;;;;;;;;;;5053975;28;20122;-85
2022/06/15 14:51:14;;;;;;;2.13;1.38;;;;;;;;;;5035757;28;20147;-85
2022/06/15 14:53:56;;;;;;;3.28;1.70;;;;;;;;;;5036139;28;20102;-90
2022/06/15 14:56:26;;;;;;;3.80;1.63;;;;;;;;;;5053966;28;20096;-90
2022/06/15 14:58:56;;;;;;;2.55;1.35;;;;;;;;;;5062161;28;20080;-85
2022/06/15 15:01:24;;;;;;;1.75;1.30;;;;;;;;;;5036452;28;20056;-85
2022/06/15 15:03:51;;;;;;;2.35;1.40;;;;;;;;;;5053747;28;20418;-86
2022/06/15 15:06:19;;;;;;;3.55;1.50;;;;;;;;;;5053504;28;20041;-87
2022/06/15 15:08:51;;;;;;;4.03;1.38;;;;;;;;;;5053353;28;20501;-85
2022/06/15 15:11:33;;;;;;;4.40;1.50;;;;;;;;;;5036451;28;20124;-90
2022/06/15 15:14:12;;;;;;;3.95;1.50;;;;;;;;;;5036698;28;20095;-88
2022/06/15 15:16:47;;;;;;;5.28;1.60;;;;;;;;;;5036517;28;20104;-88
2022/06/15 15:19:27;;;;;;;1.60;1.40;;;;;;;;;;5036446;28;20565;-91
2022/06/15 15:21:59;;;;;;;1.95;1.40;;;;;;;;;;5036570;28;20071;-86